Time;durP1;ratioP1;P1;durP2;ratioP2;P2;SDS_P1;SDS_P2;PMS_P1;PMS_P2;Temp;Humidity;BMP_temperature;BMP_pressure;BME280_temperature;BME280_humidity;BME280_pressure;Samples;Min_cycle;Max_cycle;Signal;HPM_P1;HPM_P2
2023/03/25 00:00:56;;;;;;;22.33;4.68;;;9.80;99.90;;;;;;4968034;28;20427;-68
2023/03/25 00:03:25;;;;;;;18.75;4.57;;;9.80;99.90;;;;;;4965447;28;20540;-69
2023/03/25 00:05:54;;;;;;;22.73;5.45;;;9.60;99.90;;;;;;4966778;28;20494;-69
2023/03/25 00:08:20;;;;;;;21.35;5.18;;;9.50;99.90;;;;;;4961507;28;20416;-72
2023/03/25 00:10:55;;;;;;;22.13;4.03;;;9.60;99.90;;;;;;4980918;28;20443;-68
2023/03/25 00:13:22;;;;;;;16.00;4.10;;;9.60;99.90;;;;;;4971904;28;20472;-68
2023/03/25 00:15:52;;;;;;;19.20;4.22;;;9.70;99.90;;;;;;4974135;28;20430;-68
2023/03/25 00:18:19;;;;;;;21.63;4.53;;;9.60;99.90;;;;;;4967844;28;20436;-67
2023/03/25 00:20:49;;;;;;;28.70;6.72;;;9.60;99.90;;;;;;4974739;28;20500;-69
2023/03/25 00:23:16;;;;;;;21.83;5.57;;;9.60;99.90;;;;;;4965632;28;20498;-69
2023/03/25 00:25:43;;;;;;;26.25;5.97;;;9.60;99.90;;;;;;4974252;28;20436;-67
2023/03/25 00:28:10;;;;;;;30.42;5.88;;;9.50;99.90;;;;;;4988117;28;20407;-67
2023/03/25 00:30:40;;;;;;;24.60;5.53;;;9.50;99.90;;;;;;4975598;28;20907;-69
2023/03/25 00:33:09;;;;;;;25.38;5.85;;;9.40;99.90;;;;;;4975907;28;20432;-68
2023/03/25 00:35:38;;;;;;;20.55;5.47;;;9.50;99.90;;;;;;4977181;28;20526;-68
2023/03/25 00:38:06;;;;;;;22.65;5.57;;;9.40;99.90;;;;;;4978694;28;20432;-69
2023/03/25 00:40:35;;;;;;;26.30;6.43;;;9.40;99.90;;;;;;4971369;28;20436;-68
2023/03/25 00:43:03;;;;;;;32.28;6.57;;;9.30;99.90;;;;;;4978139;28;20427;-67
2023/03/25 00:45:29;;;;;;;27.13;6.18;;;9.20;99.90;;;;;;4971028;28;20456;-67
2023/03/25 00:47:55;;;;;;;29.95;6.60;;;9.20;99.90;;;;;;4974504;28;20426;-67
2023/03/25 00:50:21;;;;;;;29.70;5.60;;;9.20;99.90;;;;;;4986444;28;20421;-68
2023/03/25 00:52:47;;;;;;;27.77;6.35;;;9.20;99.90;;;;;;4991192;28;20765;-67
2023/03/25 00:55:13;;;;;;;28.08;5.30;;;9.20;99.90;;;;;;4972347;28;20448;-69
2023/03/25 00:57:39;;;;;;;24.73;4.87;;;9.30;99.90;;;;;;4987676;28;20624;-67
2023/03/25 01:00:08;;;;;;;27.37;5.90;;;9.20;99.90;;;;;;4974291;28;20517;-69
2023/03/25 01:02:34;;;;;;;26.15;5.10;;;9.20;99.90;;;;;;4985050;28;20458;-71
2023/03/25 01:05:01;;;;;;;27.75;5.63;;;9.30;99.90;;;;;;4973010;28;20471;-67
2023/03/25 01:07:28;;;;;;;30.92;6.13;;;9.20;99.90;;;;;;4975622;28;20424;-68
2023/03/25 01:10:04;;;;;;;28.50;6.15;;;9.20;99.90;;;;;;4973429;28;20439;-67
2023/03/25 01:12:30;;;;;;;26.63;6.25;;;9.30;99.90;;;;;;4984328;28;20799;-67
2023/03/25 01:14:56;;;;;;;30.50;7.32;;;9.20;99.90;;;;;;4980878;28;20965;-67
2023/03/25 01:17:22;;;;;;;27.45;6.15;;;9.20;99.90;;;;;;4971388;28;20535;-69
2023/03/25 01:19:47;;;;;;;26.53;6.17;;;9.30;99.90;;;;;;4970323;28;20622;-67
2023/03/25 01:22:13;;;;;;;26.30;5.53;;;9.30;99.90;;;;;;4984279;28;20413;-66
2023/03/25 01:24:39;;;;;;;27.20;5.57;;;9.30;99.90;;;;;;4983989;28;20456;-67
2023/03/25 01:27:04;;;;;;;25.95;5.93;;;9.30;99.90;;;;;;4980639;28;20422;-67
2023/03/25 01:29:31;;;;;;;32.20;6.78;;;9.20;99.90;;;;;;4985231;28;20478;-67
2023/03/25 01:31:57;;;;;;;33.50;6.70;;;9.20;99.90;;;;;;4981424;28;20508;-67
2023/03/25 01:34:23;;;;;;;27.50;5.32;;;9.20;99.90;;;;;;4988605;28;20762;-68
2023/03/25 01:36:49;;;;;;;29.43;6.80;;;9.20;99.90;;;;;;4978163;28;20447;-67
2023/03/25 01:39:17;;;;;;;34.78;7.22;;;9.20;99.90;;;;;;4974121;28;20524;-68
2023/03/25 01:41:45;;;;;;;31.27;7.00;;;9.20;99.90;;;;;;4985169;28;20509;-68
2023/03/25 01:44:16;;;;;;;27.52;6.35;;;9.30;99.90;;;;;;4971189;28;20434;-67
2023/03/25 01:46:44;;;;;;;26.90;6.93;;;9.10;99.90;;;;;;4977077;28;20436;-68
2023/03/25 01:49:20;;;;;;;29.15;7.95;;;9.20;99.90;;;;;;4969819;28;20954;-68
2023/03/25 01:51:47;;;;;;;22.65;5.18;;;9.20;99.90;;;;;;4981307;28;20511;-67
2023/03/25 01:54:16;;;;;;;36.92;6.85;;;9.20;99.90;;;;;;4968330;28;20587;-68
2023/03/25 01:56:46;;;;;;;29.92;5.43;;;9.20;99.90;;;;;;4960581;28;20431;-68
2023/03/25 01:59:14;;;;;;;26.87;6.77;;;9.20;99.90;;;;;;4968738;28;20498;-69
2023/03/25 02:01:44;;;;;;;33.80;7.13;;;9.30;99.90;;;;;;4976320;28;20428;-66
2023/03/25 02:04:12;;;;;;;29.17;6.28;;;9.20;99.90;;;;;;4968700;28;20439;-68
2023/03/25 02:06:41;;;;;;;28.92;5.93;;;9.20;99.90;;;;;;4968970;28;20436;-68
2023/03/25 02:09:10;;;;;;;31.38;6.55;;;9.20;99.90;;;;;;4973969;28;20789;-68
2023/03/25 02:11:37;;;;;;;28.65;7.78;;;9.20;99.90;;;;;;4984766;28;20489;-67
2023/03/25 02:14:07;;;;;;;36.10;8.25;;;9.20;99.90;;;;;;4970052;28;20471;-67
2023/03/25 02:17:04;;;;;;;30.57;7.20;;;9.20;99.90;;;;;;4968169;28;20436;-68
2023/03/25 02:19:45;;;;;;;30.08;7.07;;;9.20;99.90;;;;;;4969114;28;20447;-69
2023/03/25 02:22:36;;;;;;;22.40;5.80;;;9.20;99.90;;;;;;4972580;28;20917;-69
2023/03/25 02:25:48;;;;;;;26.15;6.10;;;9.20;99.90;;;;;;4963388;28;21056;-68
2023/03/25 02:28:38;;;;;;;28.88;6.70;;;9.30;99.90;;;;;;4946249;28;20465;-68
2023/03/25 02:31:13;;;;;;;34.10;9.55;;;9.20;99.90;;;;;;4977894;28;20436;-69
2023/03/25 02:34:12;;;;;;;28.55;7.05;;;9.20;99.90;;;;;;4982209;28;20960;-67
2023/03/25 02:36:41;;;;;;;38.65;7.85;;;9.20;99.90;;;;;;4985875;28;20740;-68
2023/03/25 02:39:07;;;;;;;26.65;6.20;;;9.20;99.90;;;;;;4978164;28;20439;-69
2023/03/25 02:41:39;;;;;;;27.00;6.78;;;9.20;99.90;;;;;;4975750;28;21008;-68
2023/03/25 02:44:12;;;;;;;23.83;5.93;;;9.20;99.90;;;;;;4983810;28;20444;-69
2023/03/25 02:46:44;;;;;;;24.20;5.43;;;9.20;99.90;;;;;;4984267;28;20538;-67
2023/03/25 02:49:41;;;;;;;26.85;6.93;;;9.20;99.90;;;;;;4976006;28;20442;-67
2023/03/25 02:52:18;;;;;;;27.45;7.20;;;9.20;99.90;;;;;;4963545;28;20459;-69
2023/03/25 02:54:47;;;;;;;30.40;6.97;;;9.20;99.90;;;;;;4996960;28;20543;-67
2023/03/25 02:57:17;;;;;;;29.65;7.35;;;9.30;99.90;;;;;;4972180;28;20427;-69
2023/03/25 02:59:46;;;;;;;26.63;6.60;;;9.20;99.90;;;;;;4978115;28;20948;-68
2023/03/25 03:02:13;;;;;;;28.58;6.18;;;9.20;99.90;;;;;;4976510;28;20789;-70
2023/03/25 03:04:52;;;;;;;30.55;7.43;;;9.20;99.90;;;;;;4974990;28;20783;-68
2023/03/25 03:07:28;;;;;;;40.17;10.18;;;9.20;99.90;;;;;;4968599;28;20780;-68
2023/03/25 03:10:25;;;;;;;23.08;6.55;;;9.30;99.90;;;;;;4959117;28;20424;-68
2023/03/25 03:13:02;;;;;;;28.00;7.20;;;9.20;99.90;;;;;;4993276;28;20524;-69
2023/03/25 03:16:07;;;;;;;36.10;7.85;;;9.20;99.90;;;;;;4976548;28;20450;-68
2023/03/25 03:18:43;;;;;;;31.33;5.20;;;9.30;99.90;;;;;;4960469;28;20482;-68
2023/03/25 03:21:22;;;;;;;31.70;8.35;;;9.30;99.90;;;;;;4990822;28;20450;-68
2023/03/25 03:23:54;;;;;;;24.92;5.70;;;9.30;99.90;;;;;;4976535;28;20428;-68
2023/03/25 03:26:39;;;;;;;27.58;6.32;;;9.30;99.90;;;;;;4972108;28;20741;-67
2023/03/25 03:29:04;;;;;;;29.77;7.43;;;9.20;99.90;;;;;;4979352;28;20422;-68
2023/03/25 03:31:47;;;;;;;34.90;7.63;;;9.20;99.90;;;;;;4974678;28;20974;-68
2023/03/25 03:34:25;;;;;;;32.47;6.53;;;9.20;99.90;;;;;;4976572;28;20909;-68
2023/03/25 03:36:54;;;;;;;32.10;6.97;;;9.20;99.90;;;;;;4968668;28;20435;-69
2023/03/25 03:39:25;;;;;;;28.43;6.27;;;9.10;99.90;;;;;;4976981;28;20446;-69
2023/03/25 03:41:56;;;;;;;28.38;7.13;;;9.20;99.90;;;;;;4997638;28;20837;-67
2023/03/25 03:44:30;;;;;;;37.43;9.07;;;9.00;99.90;;;;;;4975733;28;20830;-68
2023/03/25 03:47:09;;;;;;;28.83;7.25;;;9.10;99.90;;;;;;4966556;28;21001;-69
2023/03/25 03:49:39;;;;;;;30.77;5.88;;;9.10;99.90;;;;;;4968509;28;20435;-68
2023/03/25 03:52:12;;;;;;;26.67;6.07;;;9.10;99.90;;;;;;4980242;28;20835;-68
2023/03/25 03:54:47;;;;;;;26.60;7.33;;;9.10;99.90;;;;;;4968925;28;20772;-68
2023/03/25 03:57:20;;;;;;;30.40;6.97;;;9.10;99.90;;;;;;4985075;28;20428;-68
2023/03/25 03:59:56;;;;;;;25.52;6.25;;;9.10;99.90;;;;;;4983393;28;20494;-68
2023/03/25 04:02:41;;;;;;;31.73;7.35;;;9.20;99.90;;;;;;4968813;28;20446;-68
2023/03/25 04:05:10;;;;;;;31.60;6.20;;;9.20;99.90;;;;;;4960914;28;20523;-69
2023/03/25 04:07:55;;;;;;;31.70;6.50;;;9.20;99.90;;;;;;4976604;28;20438;-66
2023/03/25 04:10:45;;;;;;;27.42;6.63;;;9.10;99.90;;;;;;4970053;28;20436;-68
2023/03/25 04:13:13;;;;;;;31.63;8.18;;;9.20;99.90;;;;;;4961721;28;20922;-67
2023/03/25 04:15:41;;;;;;;35.25;7.70;;;9.20;99.90;;;;;;4967267;28;20438;-69
2023/03/25 04:18:07;;;;;;;37.28;7.68;;;9.20;99.90;;;;;;4968333;28;20522;-67
2023/03/25 04:20:35;;;;;;;26.65;5.63;;;9.20;99.90;;;;;;4969650;28;20455;-67
2023/03/25 04:23:03;;;;;;;24.17;6.32;;;9.20;99.90;;;;;;4968888;28;20424;-70
2023/03/25 04:25:31;;;;;;;28.13;6.70;;;9.20;99.90;;;;;;4969111;28;20443;-69
2023/03/25 04:27:57;;;;;;;33.53;7.93;;;9.10;99.90;;;;;;4969332;28;20434;-68
2023/03/25 04:30:24;;;;;;;28.65;6.50;;;9.20;99.90;;;;;;4977943;28;20434;-68
2023/03/25 04:32:51;;;;;;;25.25;6.18;;;9.20;99.90;;;;;;4988180;28;20444;-68
2023/03/25 04:35:18;;;;;;;28.60;7.93;;;9.20;99.90;;;;;;4970162;28;20494;-68
2023/03/25 04:37:45;;;;;;;25.95;6.32;;;9.10;99.90;;;;;;4968398;28;20438;-69
2023/03/25 04:40:17;;;;;;;27.65;6.13;;;9.10;99.90;;;;;;4980359;28;20465;-67
2023/03/25 04:42:45;;;;;;;29.55;6.65;;;9.10;99.90;;;;;;4977506;28;20436;-68
2023/03/25 04:45:15;;;;;;;27.17;7.20;;;9.20;99.90;;;;;;4975394;28;20428;-67
2023/03/25 04:47:43;;;;;;;31.00;7.70;;;9.10;99.90;;;;;;4968115;28;20844;-69
2023/03/25 04:50:30;;;;;;;28.60;6.03;;;9.20;99.90;;;;;;4978078;28;20439;-68
2023/03/25 04:52:57;;;;;;;31.75;7.15;;;9.20;99.90;;;;;;4968180;28;20423;-69
2023/03/25 04:55:24;;;;;;;23.47;6.07;;;9.10;99.90;;;;;;4969846;28;20985;-68
2023/03/25 04:57:52;;;;;;;31.40;7.47;;;9.10;99.90;;;;;;4968618;28;20413;-69
2023/03/25 05:00:23;;;;;;;27.00;7.60;;;9.10;99.90;;;;;;4973602;28;20490;-68
2023/03/25 05:02:52;;;;;;;24.92;7.32;;;9.10;99.90;;;;;;4982662;28;20438;-69
2023/03/25 05:05:20;;;;;;;32.67;8.30;;;9.00;99.90;;;;;;4965351;28;20471;-69
2023/03/25 05:07:52;;;;;;;33.47;7.38;;;9.00;99.90;;;;;;4962431;28;20424;-68
2023/03/25 05:10:22;;;;;;;29.48;7.10;;;9.00;99.90;;;;;;4982433;28;20428;-68
2023/03/25 05:12:49;;;;;;;33.65;8.65;;;9.00;99.90;;;;;;4978810;28;20457;-69
2023/03/25 05:15:18;;;;;;;33.30;7.70;;;9.00;99.90;;;;;;4977158;28;20969;-68
2023/03/25 05:17:44;;;;;;;31.23;7.22;;;9.00;99.90;;;;;;4982678;28;20424;-68
2023/03/25 05:20:10;;;;;;;28.43;8.07;;;9.00;99.90;;;;;;4971868;28;20478;-68
2023/03/25 05:22:37;;;;;;;32.75;7.40;;;9.00;99.90;;;;;;4990836;28;20421;-68
2023/03/25 05:25:07;;;;;;;34.03;7.60;;;9.00;99.90;;;;;;4982729;28;20603;-68
2023/03/25 05:27:34;;;;;;;29.52;8.05;;;9.00;99.90;;;;;;4971857;28;21001;-68
2023/03/25 05:30:00;;;;;;;30.53;6.70;;;9.00;99.90;;;;;;4973407;28;20950;-69
2023/03/25 05:32:32;;;;;;;31.30;8.07;;;8.90;99.90;;;;;;4986920;28;20430;-68
2023/03/25 05:34:59;;;;;;;42.00;8.10;;;8.90;99.90;;;;;;4975820;28;20479;-68
2023/03/25 05:37:24;;;;;;;33.83;8.15;;;9.00;99.90;;;;;;4972453;28;20436;-68
2023/03/25 05:39:50;;;;;;;29.20;7.38;;;9.00;99.90;;;;;;4968716;28;20524;-69
2023/03/25 05:42:16;;;;;;;31.55;7.78;;;9.00;99.90;;;;;;4967840;28;20416;-68
2023/03/25 05:44:49;;;;;;;37.03;8.00;;;9.00;99.90;;;;;;4984989;28;20447;-69
2023/03/25 05:47:19;;;;;;;31.25;7.38;;;9.00;99.90;;;;;;4972276;28;20424;-68
2023/03/25 05:49:45;;;;;;;32.95;8.27;;;9.00;99.90;;;;;;4969897;28;20436;-69
2023/03/25 05:52:11;;;;;;;38.22;7.85;;;8.90;99.90;;;;;;4968958;28;20424;-70
2023/03/25 05:54:40;;;;;;;37.10;7.93;;;9.00;99.90;;;;;;4974433;28;20934;-68
2023/03/25 05:57:07;;;;;;;34.00;8.07;;;9.00;99.90;;;;;;4972480;28;20837;-68
2023/03/25 05:59:32;;;;;;;34.63;7.60;;;9.00;99.90;;;;;;4984329;28;20466;-68
2023/03/25 06:01:58;;;;;;;29.80;7.03;;;9.10;99.90;;;;;;4969684;28;20482;-67
2023/03/25 06:04:24;;;;;;;31.42;7.50;;;9.10;99.90;;;;;;4967044;28;20444;-68
2023/03/25 06:06:50;;;;;;;35.40;8.77;;;9.10;99.90;;;;;;4949120;28;20834;-67
2023/03/25 06:09:16;;;;;;;25.55;6.68;;;9.00;99.90;;;;;;4983371;28;20844;-68
2023/03/25 06:11:42;;;;;;;34.08;9.27;;;9.10;99.90;;;;;;4966802;28;20443;-68
2023/03/25 06:14:08;;;;;;;28.67;6.68;;;9.00;99.90;;;;;;4963803;28;20440;-69
2023/03/25 06:16:34;;;;;;;24.38;6.20;;;8.90;99.90;;;;;;4967793;28;20480;-69
2023/03/25 06:19:01;;;;;;;25.55;6.20;;;8.90;99.90;;;;;;4971023;28;20466;-68
2023/03/25 06:21:28;;;;;;;32.92;7.35;;;8.90;99.90;;;;;;4975090;28;20424;-69
2023/03/25 06:23:56;;;;;;;33.70;7.22;;;8.80;99.90;;;;;;4968023;28;20447;-68
2023/03/25 06:26:23;;;;;;;30.38;6.28;;;8.80;99.90;;;;;;4967609;28;20472;-68
2023/03/25 06:28:49;;;;;;;26.73;6.75;;;8.90;99.90;;;;;;4968782;28;20932;-68
2023/03/25 06:31:17;;;;;;;33.90;6.72;;;8.90;99.90;;;;;;4966993;28;20443;-67
2023/03/25 06:33:44;;;;;;;35.53;7.87;;;9.00;99.90;;;;;;4969450;28;20428;-67
2023/03/25 06:36:11;;;;;;;28.65;6.53;;;9.00;99.90;;;;;;4949086;28;20950;-68
2023/03/25 06:38:38;;;;;;;27.52;6.50;;;9.00;99.90;;;;;;4968349;28;20436;-68
2023/03/25 06:41:06;;;;;;;23.73;5.63;;;9.00;99.90;;;;;;4969850;28;20440;-70
2023/03/25 06:43:32;;;;;;;25.65;7.20;;;9.00;99.90;;;;;;4967150;28;20439;-68
2023/03/25 06:45:58;;;;;;;21.10;5.53;;;9.10;99.90;;;;;;4967487;28;20492;-68
2023/03/25 06:48:24;;;;;;;23.50;5.80;;;9.10;99.90;;;;;;4967735;28;20913;-68
2023/03/25 06:50:50;;;;;;;26.63;5.30;;;9.30;99.90;;;;;;4968922;28;20446;-68
2023/03/25 06:53:15;;;;;;;27.73;6.32;;;9.40;99.90;;;;;;4972412;28;20420;-69
2023/03/25 06:55:43;;;;;;;23.27;5.07;;;9.30;99.90;;;;;;4966513;28;20440;-69
2023/03/25 06:58:09;;;;;;;26.67;5.72;;;9.40;99.90;;;;;;4977303;28;20440;-68
2023/03/25 07:00:35;;;;;;;25.92;5.55;;;9.40;99.90;;;;;;4965147;28;20943;-68
2023/03/25 07:03:02;;;;;;;20.67;5.13;;;9.30;99.90;;;;;;4968696;28;20428;-69
2023/03/25 07:05:27;;;;;;;28.10;6.40;;;9.20;99.90;;;;;;4966152;28;20834;-66
2023/03/25 07:07:53;;;;;;;22.20;5.13;;;9.20;99.90;;;;;;4968810;28;20555;-69
2023/03/25 07:10:19;;;;;;;19.40;4.85;;;9.20;99.90;;;;;;4968359;28;20486;-68
2023/03/25 07:12:45;;;;;;;25.97;6.83;;;9.30;99.90;;;;;;4970942;28;20436;-68
2023/03/25 07:15:11;;;;;;;28.50;5.60;;;9.20;99.90;;;;;;4990117;28;20495;-68
2023/03/25 07:17:36;;;;;;;22.33;5.05;;;9.40;99.90;;;;;;4976961;28;20449;-66
2023/03/25 07:20:05;;;;;;;22.52;5.07;;;9.30;99.90;;;;;;4975721;28;20443;-66
2023/03/25 07:22:31;;;;;;;22.67;5.07;;;9.30;99.90;;;;;;4977020;28;20418;-68
2023/03/25 07:24:57;;;;;;;15.60;4.30;;;9.20;99.90;;;;;;4982590;28;20442;-68
2023/03/25 07:27:23;;;;;;;21.13;4.70;;;9.00;99.90;;;;;;4976009;28;20434;-67
2023/03/25 07:29:49;;;;;;;20.93;5.47;;;8.80;99.90;;;;;;4987847;28;20505;-67
2023/03/25 07:32:15;;;;;;;22.20;5.13;;;8.80;99.90;;;;;;4981854;28;20420;-67
2023/03/25 07:34:41;;;;;;;27.83;5.10;;;8.80;99.90;;;;;;4959161;28;20431;-67
2023/03/25 07:37:10;;;;;;;22.88;5.25;;;8.80;99.90;;;;;;4963695;28;20436;-67
2023/03/25 07:39:35;;;;;;;21.77;4.65;;;8.80;99.90;;;;;;4968199;28;20448;-70
2023/03/25 07:42:01;;;;;;;17.65;4.10;;;8.70;99.90;;;;;;4983456;28;20427;-69
2023/03/25 07:44:27;;;;;;;28.20;6.90;;;8.70;99.90;;;;;;4986704;28;20917;-68
2023/03/25 07:46:53;;;;;;;22.58;4.70;;;8.60;99.90;;;;;;4974415;28;20428;-67
2023/03/25 07:49:19;;;;;;;21.35;4.13;;;8.60;99.90;;;;;;4984825;28;20444;-66
2023/03/25 07:51:44;;;;;;;18.73;4.38;;;8.60;99.90;;;;;;4986611;28;20418;-68
2023/03/25 07:54:10;;;;;;;23.15;4.95;;;8.60;99.90;;;;;;4986836;28;20445;-67
2023/03/25 07:56:36;;;;;;;18.13;4.22;;;8.50;99.90;;;;;;4989839;28;20938;-67
2023/03/25 07:59:03;;;;;;;18.27;3.95;;;8.60;99.90;;;;;;4967832;28;20411;-68
2023/03/25 08:01:29;;;;;;;17.25;4.55;;;8.60;99.90;;;;;;4968524;28;20444;-67
2023/03/25 08:03:55;;;;;;;21.48;5.63;;;8.70;99.90;;;;;;4984487;28;20422;-67
2023/03/25 08:06:21;;;;;;;20.63;4.37;;;8.80;99.90;;;;;;4967339;28;20931;-67
2023/03/25 08:08:46;;;;;;;22.27;6.05;;;8.80;99.90;;;;;;4960396;28;20436;-67
2023/03/25 08:11:12;;;;;;;26.15;5.20;;;8.90;99.90;;;;;;4964670;28;20439;-67
2023/03/25 08:13:38;;;;;;;26.63;5.50;;;9.10;99.90;;;;;;4972052;28;20432;-67
2023/03/25 08:16:11;;;;;;;26.17;6.25;;;9.10;99.90;;;;;;4967205;28;20502;-70
2023/03/25 08:18:36;;;;;;;29.25;5.95;;;8.90;99.90;;;;;;4967296;28;20514;-68
2023/03/25 08:21:02;;;;;;;21.35;5.43;;;9.00;99.90;;;;;;4965912;28;20520;-66
2023/03/25 08:23:28;;;;;;;26.20;5.40;;;9.00;99.90;;;;;;4973225;28;20469;-67
2023/03/25 08:25:54;;;;;;;25.42;4.90;;;9.10;99.90;;;;;;4986873;28;20438;-68
2023/03/25 08:28:25;;;;;;;22.33;4.95;;;9.10;99.90;;;;;;4982976;28;20531;-68
2023/03/25 08:30:54;;;;;;;23.35;4.57;;;9.20;99.90;;;;;;4963695;28;20435;-68
2023/03/25 08:33:25;;;;;;;30.70;6.47;;;9.30;99.90;;;;;;4966582;28;20483;-68
2023/03/25 08:35:51;;;;;;;25.98;5.43;;;9.20;99.90;;;;;;4973593;28;20432;-68
2023/03/25 08:38:17;;;;;;;32.05;6.47;;;9.00;99.90;;;;;;4974756;28;20416;-69
2023/03/25 08:40:43;;;;;;;24.33;5.60;;;8.90;99.90;;;;;;4979011;28;20925;-68
2023/03/25 08:43:09;;;;;;;23.30;5.97;;;9.00;99.90;;;;;;4980900;28;20469;-68
2023/03/25 08:45:35;;;;;;;21.95;5.03;;;9.10;99.90;;;;;;4998218;28;20412;-67
2023/03/25 08:48:02;;;;;;;24.52;5.30;;;9.10;99.90;;;;;;4967488;28;20422;-68
2023/03/25 08:50:28;;;;;;;34.70;6.50;;;9.30;99.90;;;;;;4979869;28;20509;-66
2023/03/25 08:52:57;;;;;;;22.87;5.70;;;9.50;99.90;;;;;;4969531;28;20954;-68
2023/03/25 08:55:23;;;;;;;23.63;6.05;;;9.50;99.90;;;;;;4982941;28;20445;-67
2023/03/25 08:57:49;;;;;;;20.63;5.60;;;9.60;99.90;;;;;;4972750;28;20428;-69
2023/03/25 09:00:16;;;;;;;24.23;4.87;;;9.90;99.90;;;;;;4974016;28;20800;-68
2023/03/25 09:02:42;;;;;;;21.65;5.10;;;9.80;99.90;;;;;;4984447;28;20418;-67
2023/03/25 09:05:12;;;;;;;20.40;5.35;;;10.00;99.90;;;;;;4961427;28;20442;-69
2023/03/25 09:07:38;;;;;;;19.97;5.63;;;10.00;99.90;;;;;;4980318;28;20424;-67
2023/03/25 09:10:06;;;;;;;21.80;5.57;;;10.20;99.90;;;;;;4999630;28;20434;-68
2023/03/25 09:12:32;;;;;;;21.58;5.18;;;10.20;99.90;;;;;;4965008;28;20933;-69
2023/03/25 09:14:58;;;;;;;20.25;4.65;;;10.30;99.90;;;;;;4989807;28;20513;-67
2023/03/25 09:17:24;;;;;;;26.07;5.57;;;10.30;99.90;;;;;;4987893;28;20501;-67
2023/03/25 09:19:49;;;;;;;20.40;4.25;;;10.30;99.90;;;;;;4969683;28;20439;-69
2023/03/25 09:22:16;;;;;;;19.63;4.35;;;10.50;99.90;;;;;;4969856;28;20819;-67
2023/03/25 09:24:41;;;;;;;14.52;3.58;;;10.40;99.90;;;;;;4980900;28;20441;-67
2023/03/25 09:27:08;;;;;;;18.45;4.25;;;10.40;99.90;;;;;;4990260;28;20415;-66
2023/03/25 09:29:33;;;;;;;19.63;4.13;;;10.40;99.90;;;;;;4980343;28;20427;-70
2023/03/25 09:31:59;;;;;;;21.15;5.25;;;10.40;99.90;;;;;;4982828;28;20418;-68
2023/03/25 09:34:26;;;;;;;15.07;4.05;;;10.40;99.90;;;;;;4961945;28;20434;-68
2023/03/25 09:36:53;;;;;;;15.98;3.00;;;10.30;99.90;;;;;;4980515;28;20432;-68
2023/03/25 09:39:19;;;;;;;15.50;4.38;;;10.20;99.90;;;;;;4972526;28;20438;-68
2023/03/25 09:41:52;;;;;;;14.50;3.35;;;10.20;99.90;;;;;;4977978;28;20427;-68
2023/03/25 09:44:27;;;;;;;17.00;4.63;;;10.30;99.90;;;;;;4978808;28;20921;-67
2023/03/25 09:46:55;;;;;;;18.23;4.80;;;10.00;99.90;;;;;;4982695;28;20795;-67
2023/03/25 09:49:31;;;;;;;20.65;5.10;;;10.00;99.90;;;;;;4970217;28;20443;-68
2023/03/25 09:51:59;;;;;;;17.38;3.13;;;10.00;99.90;;;;;;4997999;28;20415;-67
2023/03/25 09:54:29;;;;;;;14.77;3.60;;;10.20;99.90;;;;;;4972266;28;20794;-67
2023/03/25 09:57:00;;;;;;;16.77;4.05;;;10.10;99.90;;;;;;4976218;28;20943;-67
2023/03/25 09:59:38;;;;;;;16.80;4.85;;;10.10;99.90;;;;;;4974017;28;20422;-68
2023/03/25 10:02:26;;;;;;;21.85;5.40;;;10.30;99.90;;;;;;4983466;28;20424;-68
2023/03/25 10:05:17;;;;;;;17.37;4.53;;;10.40;99.90;;;;;;4967475;28;20481;-68
2023/03/25 10:08:04;;;;;;;26.10;6.13;;;10.30;99.90;;;;;;4969789;28;20422;-69
2023/03/25 10:11:05;;;;;;;22.23;5.30;;;10.20;99.90;;;;;;4967952;28;20416;-68
2023/03/25 10:13:54;;;;;;;17.73;4.38;;;10.40;99.90;;;;;;4957488;28;20437;-69
2023/03/25 10:16:46;;;;;;;20.20;5.00;;;10.30;99.90;;;;;;4978238;28;20428;-68
2023/03/25 10:19:20;;;;;;;18.57;4.93;;;10.30;99.90;;;;;;4972300;28;20456;-69
2023/03/25 10:22:07;;;;;;;22.00;4.88;;;10.40;99.90;;;;;;4991108;28;20770;-68
2023/03/25 10:24:43;;;;;;;19.10;4.60;;;10.40;99.90;;;;;;4980577;28;20423;-67
2023/03/25 10:27:37;;;;;;;22.83;5.00;;;10.30;99.90;;;;;;4964275;28;20490;-69
2023/03/25 10:30:09;;;;;;;18.77;3.90;;;10.40;99.90;;;;;;4953328;28;20442;-69
2023/03/25 10:32:43;;;;;;;22.00;4.68;;;10.50;99.90;;;;;;4982699;28;20447;-70
2023/03/25 10:35:15;;;;;;;22.20;4.83;;;10.40;99.90;;;;;;4967882;28;20449;-69
2023/03/25 10:37:41;;;;;;;14.95;4.90;;;10.50;99.90;;;;;;4998509;28;20453;-69
2023/03/25 10:40:37;;;;;;;20.15;4.85;;;10.40;99.90;;;;;;4967212;28;20466;-68
2023/03/25 10:43:22;;;;;;;18.05;4.75;;;10.40;99.90;;;;;;4969635;28;20416;-68
2023/03/25 10:45:50;;;;;;;25.23;4.90;;;10.50;99.90;;;;;;4961064;28;20424;-69
2023/03/25 10:48:34;;;;;;;19.77;4.32;;;10.60;99.90;;;;;;4971611;28;20514;-69
2023/03/25 10:51:10;;;;;;;17.83;4.63;;;10.70;99.90;;;;;;4965463;28;20436;-69
2023/03/25 10:53:37;;;;;;;17.93;5.03;;;10.80;99.90;;;;;;4968415;28;20424;-68
2023/03/25 10:56:13;;;;;;;24.25;5.88;;;10.70;99.90;;;;;;4980531;28;22028;-71
2023/03/25 10:58:42;;;;;;;17.60;4.43;;;10.90;99.90;;;;;;4960277;28;20918;-69
2023/03/25 11:01:17;;;;;;;20.13;4.55;;;11.10;99.90;;;;;;4977485;28;20496;-69
2023/03/25 11:03:45;;;;;;;17.52;4.95;;;11.20;99.90;;;;;;4977550;28;20584;-69
2023/03/25 11:06:21;;;;;;;21.05;5.13;;;11.10;99.90;;;;;;4965760;28;20428;-69
2023/03/25 11:09:07;;;;;;;16.67;4.33;;;11.30;99.90;;;;;;4964897;28;20459;-70
2023/03/25 11:11:34;;;;;;;18.38;3.67;;;11.40;99.90;;;;;;4957623;28;20523;-70
2023/03/25 11:14:01;;;;;;;16.13;4.32;;;11.40;99.90;;;;;;4959327;28;20461;-69
2023/03/25 11:16:32;;;;;;;18.95;4.95;;;11.40;99.90;;;;;;4961662;28;20436;-70
2023/03/25 11:19:01;;;;;;;16.85;3.92;;;11.30;99.90;;;;;;4968593;28;20463;-70
2023/03/25 11:21:31;;;;;;;20.20;4.55;;;11.30;99.90;;;;;;4977799;28;20566;-70
2023/03/25 11:23:59;;;;;;;22.75;4.35;;;11.10;99.90;;;;;;4971061;28;21218;-70
2023/03/25 11:26:37;;;;;;;17.88;4.45;;;11.10;99.90;;;;;;4967081;28;20439;-69
2023/03/25 11:29:11;;;;;;;15.20;4.60;;;11.10;99.90;;;;;;4969362;28;20424;-70
2023/03/25 11:31:38;;;;;;;15.48;4.22;;;11.00;99.90;;;;;;4966048;28;20775;-69
2023/03/25 11:34:20;;;;;;;16.60;4.80;;;11.10;99.90;;;;;;4977077;28;20439;-72
2023/03/25 11:36:54;;;;;;;14.18;3.45;;;11.10;99.90;;;;;;4984752;28;20852;-70
2023/03/25 11:39:29;;;;;;;14.73;3.45;;;11.10;99.90;;;;;;4963709;28;20416;-70
2023/03/25 11:41:56;;;;;;;16.92;4.93;;;11.40;99.90;;;;;;4967507;28;20440;-69
2023/03/25 11:44:28;;;;;;;11.27;3.33;;;11.40;99.90;;;;;;4969127;28;20431;-70
2023/03/25 11:46:59;;;;;;;14.93;3.80;;;11.30;99.90;;;;;;4968379;28;20471;-70
2023/03/25 11:49:28;;;;;;;14.85;3.25;;;11.40;99.90;;;;;;4981663;28;20436;-70
2023/03/25 11:52:00;;;;;;;13.70;3.97;;;11.30;99.90;;;;;;4970270;28;20922;-70
2023/03/25 11:54:26;;;;;;;14.95;3.78;;;11.30;99.90;;;;;;4981386;28;20442;-70
2023/03/25 11:56:54;;;;;;;15.43;3.65;;;11.50;99.90;;;;;;4968621;28;20847;-70
2023/03/25 11:59:26;;;;;;;15.13;3.78;;;11.70;99.90;;;;;;4968332;28;20420;-70
2023/03/25 12:02:22;;;;;;;16.63;3.85;;;12.00;99.90;;;;;;4968179;28;20527;-69
2023/03/25 12:04:57;;;;;;;18.23;4.43;;;12.10;99.90;;;;;;4960115;28;20555;-70
2023/03/25 12:07:23;;;;;;;15.10;3.65;;;11.80;99.90;;;;;;4966756;28;20439;-70
2023/03/25 12:09:57;;;;;;;17.53;4.10;;;11.60;99.90;;;;;;4964386;28;20447;-70
2023/03/25 12:12:44;;;;;;;20.25;4.30;;;11.50;99.90;;;;;;4948448;28;20442;-69
2023/03/25 12:15:52;;;;;;;15.57;3.50;;;11.40;99.90;;;;;;4968171;28;20440;-70
2023/03/25 12:18:27;;;;;;;16.58;3.40;;;12.00;99.90;;;;;;4964843;28;20952;-71
2023/03/25 12:21:21;;;;;;;18.92;4.30;;;12.10;99.90;;;;;;4966745;28;20436;-70
2023/03/25 12:24:06;;;;;;;14.68;3.85;;;11.80;99.90;;;;;;4956819;28;20428;-70
2023/03/25 12:26:58;;;;;;;18.02;4.63;;;11.60;99.90;;;;;;4970587;28;20470;-70
2023/03/25 12:29:35;;;;;;;13.38;3.38;;;11.40;99.90;;;;;;4970856;28;20440;-71
2023/03/25 12:32:15;;;;;;;19.77;4.53;;;11.90;99.90;;;;;;4967302;28;20440;-70
2023/03/25 12:35:01;;;;;;;12.48;3.22;;;12.00;99.90;;;;;;4968394;28;20448;-71
2023/03/25 12:37:57;;;;;;;15.35;3.70;;;11.70;99.90;;;;;;4980588;28;20446;-69
2023/03/25 12:41:04;;;;;;;13.67;3.67;;;12.10;99.90;;;;;;4970616;28;20435;-69
2023/03/25 12:43:57;;;;;;;15.18;3.38;;;11.80;99.90;;;;;;4968355;28;20835;-70
2023/03/25 12:46:44;;;;;;;13.75;4.80;;;12.00;99.90;;;;;;4950256;28;20430;-71
2023/03/25 12:49:38;;;;;;;15.25;4.18;;;11.70;99.90;;;;;;4973208;28;20447;-70
2023/03/25 12:52:14;;;;;;;16.87;3.80;;;11.50;99.90;;;;;;4984007;28;20481;-71
2023/03/25 12:54:49;;;;;;;14.52;4.32;;;11.50;99.90;;;;;;4976646;28;20434;-70
2023/03/25 12:57:24;;;;;;;18.67;4.25;;;11.30;99.90;;;;;;4956770;28;20473;-70
2023/03/25 13:00:00;;;;;;;14.25;3.47;;;11.30;99.90;;;;;;4963435;28;20514;-69
2023/03/25 13:02:31;;;;;;;14.50;3.97;;;11.00;99.90;;;;;;4970184;28;20452;-71
2023/03/25 13:04:59;;;;;;;12.30;3.17;;;11.10;99.90;;;;;;4974286;28;20428;-70